AirNav   Air Wisconsin Up To $57,000 Bonus
 
 1278 users online  

63MI Providence Hospital Heliport
Novi, Michigan, USA

GOING TO NOVI?


FAA INFORMATION EFFECTIVE 19 MAY 2022

Location

FAA Identifier: 63MI
Lat/Long: 42-29-10.4000N 083-31-12.2600W
42-29.173333N 083-31.204333W
42.4862222,-83.5200722
(estimated)
Elevation: 970 ft. / 296 m (estimated)
From city: 2 miles SE of NOVI, MI
Time zone: UTC -4 (UTC -5 during Standard Time)
Zip code: 48374

Heliport Operations

Heliport use: Private use, MEDICAL USE.
Activation date: 03/2007
Control tower: no
ARTCC: CLEVELAND CENTER
FSS: LANSING FLIGHT SERVICE STATION
Attendance: UNATNDD
Segmented circle: no
Lights: FOR PERIMETER LGTS CALL THE ER AT 248-465-4210.

Heliport Communications

WX ASOS at PTK (12 nm N): 125.025 (248-886-8551)
WX ASOS at YIP (15 nm S): PHONE 734-961-6843
WX AWOS-3 at VLL (16 nm E): 119.475 (248-288-4649)
WX ASOS at DTW (18 nm SE): PHONE 734-955-5015
WX ASOS at ARB (19 nm SW): PHONE 734-668-7173

Nearby radio navigation aids

VOR radial/distance  VOR name  Freq  Var
SVMr038/5.7SALEM VORTAC114.3003W
DXOr343/17.7DETROIT VOR/DME113.4006W
CRLr357/26.4CARLETON VOR/DME115.7003W
FNTr167/30.5FLINT VORTAC116.9006W

 
NDB name  Hdg/Dist  Freq  Var  ID
GROSSE ILE332/28.341907WRYS .-. -.-- ...
TECUMSEH037/31.623906WTCU - -.-. ..-

Heliport Services

Runway Information

Helipad H1

Dimensions: 50 x 50 ft. / 15 x 15 m
Surface: concrete
Runway edge lights: PERI
Latitude: 42-29.173333N
Longitude: 083-31.204333W
Elevation: 970.0 ft.
Traffic pattern: leftleft

Heliport Ownership and Management from official FAA records

Ownership: Privately-owned
Owner: PROVIDENCE HOSPITAL & MEDICAL CTR
47601 GRAND RIVER AVE STE A-208
NOVI, MI 48375
Phone 248-465-4173
Manager: CAROL GLICK
47601 GRAND RIVER AVE STE A-208
NOVI, MI 48375
Phone 248-465-4173

Additional Remarks

FOR CD CTC DETROIT APCH AT 734-955-1404.

Instrument Procedures

There are no published instrument procedures at 63MI.

Some nearby airports with instrument procedures:

Y47 - Oakland Southwest Airport (5 nm W)
1D2 - Canton-Plymouth-Mettetal Airport (9 nm S)
KPTK - Oakland County International Airport (12 nm N)
KYIP - Willow Run Airport (15 nm S)
KVLL - Oakland/Troy Airport (16 nm E)
KDTW - Detroit Metro Wayne County Airport (18 nm SE)
KARB - Ann Arbor Municipal Airport (19 nm SW)
 
Loc | Ops | Rwys | IFR | FBO | Links
Com | Nav | Svcs | Stats | Notes
Area around 63MI (Providence Hospital Heliport)
 
Road maps at: MapQuest Bing Google
 
Aerial photo
No photo
 
Sectional chart

 
Airport distance calculator
Flying to Providence Hospital Heliport? Find the distance to fly.

From to 63MI

Sunrise and sunset
Times for 26-May-2022
 Local
(UTC-4)
 Zulu
(UTC)
Morning civil twilight05:3009:30
Sunrise06:0410:04
Sunset20:5800:58
Evening civil twilight21:3201:32

Current date and time
Zulu (UTC)  26-May-2022 21:47:39
Local (UTC-4)  26-May-2022 17:47:39
 
METAR
KPTK 
12nm NE 
262125Z 15006KT 10SM -DZ FEW008 SCT016 BKN032 OVC130 21/19 A2982 RMK AO2 RAE15DZB24 P0000 T02110189
KYIP 
15nm S 
262125Z 17006KT 10SM SCT016 BKN035 OVC090 23/19 A2983 RMK AO2 RAE17 P0000 T02280189
KVLL 
16nm E 
262135Z AUTO 18006KT 10SM BKN012 BKN025 OVC075 22/18 A2985 RMK AO2 T02160184
KDTW 
17nm SE 
262113Z 19007KT 3SM -RA FEW009 SCT025 OVC050 21/20 A2983 RMK AO2 SFC VIS 7 P0001 T02110200
KARB 
19nm SW 
734-668-7173
262123Z 22008KT 10SM FEW021 SCT032 BKN060 22/18 A2982 RMK AO2 T02170183
KOZW 
21nm W 
262135Z AUTO 21005KT 10SM SCT090 BKN120 20/17 A2982 RMK AO2 T02000165 P0002
KDET 
23nm E 
262137Z 19007KT 10SM BKN012 BKN019 OVC042 22/19 A2983 RMK AO2 RAE2054 P0000 T02220194
TAF
KPTK 
12nm NE 
261728Z 2618/2718 19012G20KT 6SM -SHRA SCT025 BKN035 TEMPO 2622/2701 3SM TSRA BR OVC030CB FM270100 18006KT P6SM OVC025 FM270800 20004KT 5SM BR SCT015 OVC025 FM271500 23006KT 3SM BR OVC020
KYIP 
15nm S 
261728Z 2618/2718 19012G20KT 6SM -SHRA SCT025 BKN035 TEMPO 2621/2624 3SM TSRA BR OVC030CB FM270100 18006KT P6SM OVC025 FM270800 20004KT 5SM BR SCT015 BKN025 FM271400 22006KT 6SM BR OVC020
KDTW 
17nm SE 
261731Z 2618/2724 19012G20KT 6SM -SHRA BKN025 OVC050 TEMPO 2621/2624 3SM TSRA BR OVC030CB FM270100 18006KT P6SM OVC025 FM270800 20004KT 5SM BR SCT015 BKN025 FM271400 20006KT 6SM BR OVC020
NOTAMs
Click for the latest NOTAMs
NOTAMs are issued by the DoD/FAA and will open in a separate window not controlled by AirNav.

 

 
 

Would you like to see your business listed on this page?

 If your business provides an interesting product or service to pilots, flight crews, aircraft, or users of the Providence Hospital Heliport, you should consider listing it here.  To start the listing process, click on the button below
 
Add a business
 

Other Pages about Providence Hospital Heliport

Update a link
 
Copyright © AirNav, LLC. All rights reserved. Privacy Policy  Contact